This is the latest recevied weather packets stored in our database for station/object WC0AA-WX. If no packets are shown the sender has not sent any weather packets the latest 10 day(s).
| Time | Temp. | Humidity | Pressure | Rain* | Wind** | Luminosity | Snow |
|---|---|---|---|---|---|---|---|
| 1777607569 | 7.78° C | 71% | 1019.8 hPa | 0 mm | - | - | - |
| 1777605164 | 8.89° C | 66% | 1019.7 hPa | 0 mm | - | - | - |
| 1777604564 | 8.89° C | 65% | 1019.6 hPa | 0 mm | - | - | - |
| 1777603963 | 9.44° C | 63% | 1019.4 hPa | 0 mm | - | - | - |
| 1777601559 | 10.56° C | 59% | 1018.9 hPa | 0 mm | - | - | - |
| 1777596752 | 12.78° C | 52% | 1017.7 hPa | 0 mm | - | - | - |
| 1777590143 | 15° C | 44% | 1017.3 hPa | 0 mm | - | - | - |
| 1777586537 | 17.22° C | 39% | 1017.3 hPa | 0 mm | - | - | - |
| 1777585936 | 18.33° C | 39% | 1017.1 hPa | 0 mm | - | - | - |
| 1777585335 | 18.33° C | 40% | 1017.2 hPa | 0 mm | - | - | - |
| 1777575721 | 20° C | 45% | 1017.3 hPa | 0 mm | - | - | - |
| 1777573918 | 18.89° C | 45% | 1017.5 hPa | 0 mm | - | - | - |
| 1777570313 | 20° C | 43% | 1018.1 hPa | 0 mm | - | - | - |
| 1777567909 | 20° C | 45% | 1018.3 hPa | 0 mm | - | - | - |
| 1777566106 | 19.44° C | 46% | 1018.3 hPa | 0 mm | - | - | - |
| 1777564304 | 18.33° C | 49% | 1018.3 hPa | 0 mm | - | - | - |
| 1777561900 | 16.11° C | 57% | 1018.4 hPa | 0 mm | - | - | - |
| 1777552887 | 8.33° C | 90% | 1018.4 hPa | 0 mm | - | - | - |
| 1777552285 | 8.33° C | 90% | 1018.2 hPa | 0 mm | - | - | - |
| 1777551083 | 8.33° C | 90% | 1018 hPa | 0 mm | - | - | - |
| 1777550483 | 7.78° C | 90% | 1017.9 hPa | 0 mm | - | - | - |
| 1777549281 | 7.22° C | 91% | 1018 hPa | 0 mm | - | - | - |
| 1777548680 | 6.67° C | 93% | 1018 hPa | 0 mm | - | - | - |
| 1777548079 | 6.11° C | 94% | 1018.1 hPa | 0 mm | - | - | - |
| 1777547478 | 6.11° C | 94% | 1018.2 hPa | 0 mm | - | - | - |
* Rain latest hour (hover to see other rain measurements)
** Current wind speed in m/s (hover to see current wind gust speed)